createdAt,value
2023-04-23T00:00:43.678Z,15.30
2023-04-23T00:03:14.923Z,15.16
2023-04-23T00:05:44.676Z,15.12
2023-04-23T00:08:12.703Z,15.13
2023-04-23T00:10:40.165Z,14.95
2023-04-23T00:13:07.889Z,14.80
2023-04-23T00:15:35.672Z,14.80
2023-04-23T00:18:03.086Z,14.92
2023-04-23T00:20:30.466Z,14.67
2023-04-23T00:22:57.820Z,14.67
2023-04-23T00:25:25.191Z,14.53
2023-04-23T00:27:52.543Z,14.59
2023-04-23T00:30:19.938Z,14.59
2023-04-23T00:32:47.811Z,14.65
2023-04-23T00:35:15.285Z,14.55
2023-04-23T00:37:42.623Z,14.48
2023-04-23T00:40:11.646Z,14.50
2023-04-23T00:42:40.039Z,14.48
2023-04-23T00:45:12.371Z,14.57
2023-04-23T00:47:40.881Z,14.66
2023-04-23T00:50:08.678Z,14.63
2023-04-23T00:52:36.104Z,14.69
2023-04-23T00:55:03.581Z,14.67
2023-04-23T00:57:31.066Z,14.74
2023-04-23T00:59:59.263Z,14.71
2023-04-23T01:02:28.635Z,14.69
2023-04-23T01:04:56.763Z,14.70
2023-04-23T01:07:24.337Z,14.64
2023-04-23T01:09:51.771Z,14.59
2023-04-23T01:12:19.231Z,14.64
2023-04-23T01:14:46.962Z,14.51
2023-04-23T01:17:14.479Z,14.50
2023-04-23T01:19:42.110Z,14.53
2023-04-23T01:22:12.398Z,14.60
2023-04-23T01:24:41.412Z,14.61
2023-04-23T01:27:10.184Z,14.57
2023-04-23T01:29:38.635Z,14.49
2023-04-23T01:32:08.006Z,14.56
2023-04-23T01:34:39.407Z,14.45
2023-04-23T01:37:07.684Z,14.50
2023-04-23T01:39:37.215Z,14.48
2023-04-23T01:42:07.172Z,14.43
2023-04-23T01:44:34.647Z,14.42
2023-04-23T01:47:02.359Z,14.45
2023-04-23T01:49:32.402Z,14.38
2023-04-23T01:51:59.734Z,14.39
2023-04-23T01:54:27.071Z,14.33
2023-04-23T01:56:55.833Z,14.42
2023-04-23T01:59:23.579Z,14.35
2023-04-23T02:01:51.103Z,14.31
2023-04-23T02:04:19.154Z,14.27
2023-04-23T02:06:49.817Z,14.29
2023-04-23T02:09:17.221Z,14.23
2023-04-23T02:11:44.611Z,14.14
2023-04-23T02:14:12.174Z,14.03
2023-04-23T02:16:39.893Z,13.95
2023-04-23T02:19:07.218Z,13.90
2023-04-23T02:21:34.549Z,13.93
2023-04-23T02:24:01.867Z,14.01
2023-04-23T02:26:29.776Z,13.94
2023-04-23T02:28:57.046Z,14.08
2023-04-23T02:31:24.512Z,14.15
2023-04-23T02:33:52.049Z,14.19
2023-04-23T02:36:19.396Z,14.05
2023-04-23T02:38:48.577Z,14.06
2023-04-23T02:41:15.931Z,14.11
2023-04-23T02:43:43.234Z,14.07
2023-04-23T02:46:10.700Z,13.96
2023-04-23T02:48:41.001Z,13.96
2023-04-23T02:51:11.795Z,14.03
2023-04-23T02:53:39.160Z,14.00
2023-04-23T02:56:07.369Z,13.96
2023-04-23T02:58:35.652Z,13.92
2023-04-23T03:01:03.760Z,13.95
2023-04-23T03:03:34.882Z,13.90
2023-04-23T03:06:05.058Z,13.95
2023-04-23T03:08:32.574Z,13.93
2023-04-23T03:11:00.763Z,13.95
2023-04-23T03:13:28.177Z,13.96
2023-04-23T03:15:56.005Z,13.89
2023-04-23T03:18:23.431Z,13.88
2023-04-23T03:20:53.469Z,13.78
2023-04-23T03:23:20.813Z,13.73
2023-04-23T03:25:48.868Z,13.72
2023-04-23T03:28:16.312Z,13.77
2023-04-23T03:30:44.937Z,13.82
2023-04-23T03:33:12.262Z,13.85
2023-04-23T03:35:39.618Z,13.74
2023-04-23T03:38:12.724Z,13.74
2023-04-23T03:40:41.733Z,13.81
2023-04-23T03:43:10.451Z,13.81
2023-04-23T03:46:07.020Z,13.84
2023-04-23T03:48:38.651Z,13.83
2023-04-23T03:51:11.128Z,13.71
2023-04-23T03:53:47.581Z,13.68
2023-04-23T03:56:33.467Z,13.72
2023-04-23T03:59:26.937Z,13.76
2023-04-23T04:01:58.484Z,13.77
2023-04-23T04:04:26.955Z,13.77
2023-04-23T04:06:56.775Z,13.68
2023-04-23T04:09:28.523Z,13.70
2023-04-23T04:11:56.090Z,13.77
2023-04-23T04:14:23.602Z,13.82
2023-04-23T04:16:50.995Z,13.83
2023-04-23T04:19:18.286Z,13.81
2023-04-23T04:21:45.718Z,13.81
2023-04-23T04:24:13.106Z,13.73
2023-04-23T04:26:41.107Z,13.71
2023-04-23T04:29:10.507Z,13.72
2023-04-23T04:31:37.958Z,13.72
2023-04-23T04:34:07.218Z,13.78
2023-04-23T04:36:35.663Z,13.79
2023-04-23T04:39:03.601Z,13.75
2023-04-23T04:41:30.936Z,13.69
2023-04-23T04:43:58.608Z,13.69
2023-04-23T04:46:32.027Z,13.70
2023-04-23T04:48:59.427Z,13.67
2023-04-23T04:51:28.518Z,13.64
2023-04-23T04:53:56.643Z,13.66
2023-04-23T04:56:25.730Z,13.68
2023-04-23T04:58:53.132Z,13.69
2023-04-23T05:01:23.189Z,13.73
2023-04-23T05:03:50.877Z,13.81
2023-04-23T05:06:18.284Z,13.84
2023-04-23T05:08:48.238Z,13.84
2023-04-23T05:11:20.035Z,13.86
2023-04-23T05:13:48.163Z,14.12
2023-04-23T05:16:15.933Z,14.13
2023-04-23T05:18:43.280Z,14.15
2023-04-23T05:21:10.598Z,14.28
2023-04-23T05:23:37.962Z,14.32
2023-04-23T05:26:05.307Z,14.29
2023-04-23T05:28:32.643Z,14.25
2023-04-23T05:30:59.958Z,14.35
2023-04-23T05:33:33.513Z,14.25
2023-04-23T05:36:08.294Z,14.03
2023-04-23T05:38:35.779Z,14.08
2023-04-23T05:41:03.072Z,14.15
2023-04-23T05:43:30.518Z,14.13
2023-04-23T05:45:57.900Z,14.28
2023-04-23T05:48:25.233Z,14.47
2023-04-23T05:50:52.924Z,14.54
2023-04-23T05:53:20.384Z,14.57
2023-04-23T05:55:47.684Z,14.70
2023-04-23T05:58:15.781Z,14.81
2023-04-23T06:00:43.277Z,14.93
2023-04-23T06:03:10.704Z,15.09
2023-04-23T06:05:38.271Z,15.30
2023-04-23T06:08:05.801Z,15.25
2023-04-23T06:10:33.141Z,15.41
2023-04-23T06:13:00.427Z,15.48
2023-04-23T06:15:27.811Z,15.40
2023-04-23T06:17:55.240Z,15.47
2023-04-23T06:20:22.651Z,15.45
2023-04-23T06:22:55.327Z,15.47
2023-04-23T06:25:22.738Z,15.60
2023-04-23T06:27:50.036Z,15.49
2023-04-23T06:30:21.586Z,15.48
2023-04-23T06:32:50.433Z,15.46
2023-04-23T06:35:17.773Z,15.55
2023-04-23T06:37:45.059Z,15.59
2023-04-23T06:40:13.116Z,15.63
2023-04-23T06:42:40.553Z,15.71
2023-04-23T06:45:18.506Z,15.91
2023-04-23T06:47:45.976Z,16.03
2023-04-23T06:50:13.329Z,16.00
2023-04-23T06:52:40.908Z,16.02
2023-04-23T06:55:08.909Z,16.00
2023-04-23T06:57:36.295Z,16.16
2023-04-23T07:00:06.727Z,16.32
2023-04-23T07:02:38.298Z,16.49
2023-04-23T07:05:05.934Z,16.44
2023-04-23T07:07:34.117Z,16.39
2023-04-23T07:10:01.421Z,16.37
2023-04-23T07:12:29.032Z,16.36
2023-04-23T07:14:56.781Z,16.25
2023-04-23T07:17:24.113Z,16.18
2023-04-23T07:19:51.412Z,16.18
2023-04-23T07:22:18.801Z,16.29
2023-04-23T07:24:46.149Z,16.49
2023-04-23T07:27:13.507Z,16.59
2023-04-23T07:29:40.851Z,16.73
2023-04-23T07:32:08.225Z,16.75
2023-04-23T07:34:38.738Z,16.92
2023-04-23T07:37:06.404Z,17.00
2023-04-23T07:39:34.422Z,17.09
2023-04-23T07:42:04.629Z,17.26
2023-04-23T07:44:31.973Z,17.29
2023-04-23T07:46:59.296Z,17.41
2023-04-23T07:49:26.604Z,17.46
2023-04-23T07:51:53.980Z,17.57
2023-04-23T07:54:21.305Z,17.69
2023-04-23T07:56:48.582Z,17.70
2023-04-23T07:59:15.987Z,17.78
2023-04-23T08:01:43.501Z,18.00
2023-04-23T08:04:12.408Z,17.99
2023-04-23T08:06:39.931Z,17.82
2023-04-23T08:09:07.342Z,17.87
2023-04-23T08:11:35.006Z,17.88
2023-04-23T08:14:02.345Z,18.03
2023-04-23T08:16:30.924Z,17.99
2023-04-23T08:19:05.531Z,18.21
2023-04-23T08:21:34.053Z,18.38
2023-04-23T08:24:03.142Z,18.64
2023-04-23T08:26:31.512Z,18.58
2023-04-23T08:29:00.875Z,18.79
2023-04-23T08:31:28.597Z,18.87
2023-04-23T08:33:56.582Z,18.95
2023-04-23T08:36:24.642Z,18.90
2023-04-23T08:38:52.039Z,19.07
2023-04-23T08:41:23.319Z,19.33
2023-04-23T08:43:58.177Z,19.45
2023-04-23T08:46:28.855Z,19.46
2023-04-23T08:48:59.205Z,19.68
2023-04-23T08:51:30.461Z,19.98
2023-04-23T08:53:59.590Z,19.83
2023-04-23T08:56:27.459Z,20.05
2023-04-23T08:58:56.982Z,20.17
2023-04-23T09:01:24.762Z,20.43
2023-04-23T09:03:53.497Z,20.56
2023-04-23T09:06:21.827Z,20.49
2023-04-23T09:08:49.125Z,20.66
2023-04-23T09:11:17.552Z,21.34
2023-04-23T09:13:45.240Z,21.77
2023-04-23T09:16:13.699Z,21.60
2023-04-23T09:18:42.320Z,21.00
2023-04-23T09:21:10.743Z,21.02
2023-04-23T09:23:41.317Z,21.15
2023-04-23T09:26:08.609Z,21.83
2023-04-23T09:28:36.943Z,21.52
2023-04-23T09:31:07.842Z,20.97
2023-04-23T09:33:35.724Z,20.93
2023-04-23T09:36:11.864Z,20.92
2023-04-23T09:38:43.538Z,20.93
2023-04-23T09:41:31.531Z,20.96
2023-04-23T09:43:59.189Z,20.90
2023-04-23T09:46:37.391Z,20.91
2023-04-23T09:49:23.871Z,20.94
2023-04-23T09:51:51.396Z,21.00
2023-04-23T09:54:22.693Z,21.10
2023-04-23T09:56:53.942Z,21.05
2023-04-23T09:59:39.510Z,21.01
2023-04-23T10:02:13.524Z,21.12
2023-04-23T10:04:42.504Z,20.68
2023-04-23T10:07:20.385Z,20.74
2023-04-23T10:09:48.442Z,20.77
2023-04-23T10:14:50.548Z,20.58
2023-04-23T10:17:18.117Z,20.61
2023-04-23T10:19:45.958Z,20.82
2023-04-23T10:22:19.461Z,20.64
2023-04-23T10:24:52.069Z,20.69
2023-04-23T10:29:53.758Z,20.72
2023-04-23T10:32:21.701Z,20.81
2023-04-23T10:34:49.374Z,20.88
2023-04-23T10:37:19.566Z,20.89
2023-04-23T10:39:53.803Z,20.99
2023-04-23T10:42:22.862Z,20.81
2023-04-23T10:44:59.418Z,20.79
2023-04-23T10:47:32.340Z,20.60
2023-04-23T10:50:19.006Z,20.71
2023-04-23T10:52:51.424Z,20.78
2023-04-23T10:55:24.029Z,21.13
2023-04-23T10:58:02.240Z,21.17
2023-04-23T11:00:45.643Z,21.06
2023-04-23T11:03:43.065Z,21.26
2023-04-23T11:06:20.241Z,21.06
2023-04-23T11:08:55.213Z,21.05
2023-04-23T11:11:42.926Z,20.73
2023-04-23T11:14:14.356Z,20.79
2023-04-23T11:16:42.020Z,20.94
2023-04-23T11:19:16.690Z,21.20
2023-04-23T11:21:54.828Z,21.30
2023-04-23T11:24:23.815Z,21.22
2023-04-23T11:26:53.941Z,20.84
2023-04-23T11:29:26.200Z,21.00
2023-04-23T11:32:02.570Z,20.99
2023-04-23T11:34:30.561Z,21.11
2023-04-23T11:37:00.602Z,21.08
2023-04-23T11:39:28.501Z,21.07
2023-04-23T11:41:57.038Z,21.21
2023-04-23T11:44:24.399Z,20.90
2023-04-23T11:46:51.727Z,20.87
2023-04-23T11:49:19.432Z,21.01
2023-04-23T11:51:47.149Z,21.04
2023-04-23T11:54:14.864Z,20.84
2023-04-23T11:56:42.579Z,20.81
2023-04-23T11:59:09.965Z,20.79
2023-04-23T12:01:47.620Z,20.67
2023-04-23T12:04:23.404Z,20.79
2023-04-23T12:06:52.455Z,20.90
2023-04-23T12:09:21.880Z,21.14
2023-04-23T12:11:52.520Z,21.34
2023-04-23T12:14:28.321Z,21.33
2023-04-23T12:16:56.579Z,21.22
2023-04-23T12:19:31.582Z,21.11
2023-04-23T12:22:03.874Z,21.19
2023-04-23T12:24:45.397Z,21.14
2023-04-23T12:27:16.160Z,21.17
2023-04-23T12:29:43.864Z,21.16
2023-04-23T12:32:12.223Z,21.22
2023-04-23T12:34:53.110Z,21.28
2023-04-23T12:37:28.730Z,21.34
2023-04-23T12:39:59.309Z,21.60
2023-04-23T12:42:33.664Z,21.67
2023-04-23T12:45:09.220Z,21.75
2023-04-23T12:47:36.987Z,21.43
2023-04-23T12:50:05.802Z,21.45
2023-04-23T12:52:33.257Z,21.32
2023-04-23T12:55:01.439Z,21.06
2023-04-23T12:57:29.250Z,21.04
2023-04-23T12:59:56.726Z,21.39
2023-04-23T13:02:26.034Z,21.35
2023-04-23T13:04:59.745Z,21.37
2023-04-23T13:07:27.508Z,21.47
2023-04-23T13:09:55.135Z,21.63
2023-04-23T13:12:23.123Z,21.54
2023-04-23T13:14:50.522Z,21.45
2023-04-23T13:17:18.451Z,21.58
2023-04-23T13:19:46.016Z,21.44
2023-04-23T13:22:13.435Z,21.31
2023-04-23T13:24:41.311Z,21.28
2023-04-23T13:27:08.902Z,21.27
2023-04-23T13:29:36.941Z,21.23
2023-04-23T13:32:04.609Z,21.10
2023-04-23T13:34:34.054Z,21.22
2023-04-23T13:37:05.658Z,21.40
2023-04-23T13:39:33.246Z,21.58
2023-04-23T13:42:08.871Z,21.65
2023-04-23T13:44:37.225Z,21.46
2023-04-23T13:47:04.794Z,21.40
2023-04-23T13:49:32.577Z,21.33
2023-04-23T13:52:04.310Z,21.46
2023-04-23T13:54:32.080Z,21.47
2023-04-23T13:57:00.474Z,21.33
2023-04-23T13:59:28.362Z,21.45
2023-04-23T14:01:55.769Z,21.52
2023-04-23T14:04:24.334Z,21.46
2023-04-23T14:06:51.919Z,21.38
2023-04-23T14:09:19.471Z,21.26
2023-04-23T14:11:46.918Z,21.27
2023-04-23T14:14:14.653Z,21.34
2023-04-23T14:16:42.612Z,21.31
2023-04-23T14:19:10.111Z,21.28
2023-04-23T14:21:38.048Z,21.31
2023-04-23T14:24:16.861Z,21.34
2023-04-23T14:26:49.432Z,21.24
2023-04-23T14:29:29.826Z,21.19
2023-04-23T14:31:57.413Z,21.13
2023-04-23T14:34:24.813Z,21.21
2023-04-23T14:36:53.373Z,21.26
2023-04-23T14:39:26.396Z,21.27
2023-04-23T14:41:53.782Z,21.27
2023-04-23T14:44:26.514Z,21.28
2023-04-23T14:46:53.986Z,21.23
2023-04-23T14:49:22.041Z,21.42
2023-04-23T14:51:51.033Z,21.62
2023-04-23T14:54:18.776Z,21.60
2023-04-23T14:56:46.644Z,21.37
2023-04-23T14:59:19.015Z,21.37
2023-04-23T15:01:46.757Z,21.50
2023-04-23T15:04:20.345Z,21.60
2023-04-23T15:06:48.007Z,21.86
2023-04-23T15:09:15.811Z,21.72
2023-04-23T15:11:43.477Z,21.53
2023-04-23T15:14:36.656Z,21.51
2023-04-23T15:17:04.290Z,21.61
2023-04-23T15:19:32.941Z,21.69
2023-04-23T15:22:00.341Z,21.48
2023-04-23T15:24:27.840Z,21.36
2023-04-23T15:26:55.326Z,21.33
2023-04-23T15:29:24.505Z,21.35
2023-04-23T15:31:58.210Z,21.30
2023-04-23T15:34:30.144Z,21.47
2023-04-23T15:37:16.485Z,21.55
2023-04-23T15:39:44.007Z,21.32
2023-04-23T15:42:15.354Z,21.23
2023-04-23T15:44:48.468Z,21.09
2023-04-23T15:47:16.968Z,21.10
2023-04-23T15:49:49.719Z,21.31
2023-04-23T15:52:23.315Z,21.31
2023-04-23T15:54:53.680Z,21.26
2023-04-23T15:57:21.480Z,21.40
2023-04-23T15:59:49.535Z,21.42
2023-04-23T16:02:18.076Z,21.27
2023-04-23T16:04:46.177Z,21.04
2023-04-23T16:07:13.678Z,20.95
2023-04-23T16:09:41.285Z,20.79
2023-04-23T16:12:08.965Z,20.81
2023-04-23T16:14:37.564Z,20.80
2023-04-23T16:17:04.868Z,20.97
2023-04-23T16:19:32.230Z,21.08
2023-04-23T16:21:59.679Z,21.05
2023-04-23T16:24:27.005Z,21.01
2023-04-23T16:26:54.782Z,21.20
2023-04-23T16:29:23.042Z,21.26
2023-04-23T16:31:50.698Z,21.11
2023-04-23T16:34:18.001Z,20.99
2023-04-23T16:36:45.458Z,20.83
2023-04-23T16:39:12.744Z,20.79
2023-04-23T16:41:40.114Z,20.91
2023-04-23T16:44:07.525Z,20.97
2023-04-23T16:46:34.954Z,21.11
2023-04-23T16:49:02.469Z,21.11
2023-04-23T16:51:29.930Z,20.92
2023-04-23T16:53:57.347Z,21.00
2023-04-23T16:56:24.779Z,21.01
2023-04-23T16:58:52.173Z,21.06
2023-04-23T17:01:19.530Z,21.10
2023-04-23T17:03:47.103Z,20.91
2023-04-23T17:06:27.279Z,20.91
2023-04-23T17:08:55.493Z,20.84
2023-04-23T17:11:23.122Z,20.83
2023-04-23T17:13:54.838Z,20.91
2023-04-23T17:16:22.914Z,20.84
2023-04-23T17:18:50.265Z,20.64
2023-04-23T17:21:17.725Z,20.80
2023-04-23T17:23:45.760Z,20.82
2023-04-23T17:26:13.702Z,20.80
2023-04-23T17:28:41.159Z,20.68
2023-04-23T17:31:09.044Z,20.65
2023-04-23T17:33:36.443Z,20.57
2023-04-23T17:36:04.437Z,20.58
2023-04-23T17:38:31.871Z,20.47
2023-04-23T17:40:59.505Z,20.47
2023-04-23T17:43:27.364Z,20.36
2023-04-23T17:45:54.786Z,20.34
2023-04-23T17:48:23.065Z,20.27
2023-04-23T17:50:50.654Z,20.19
2023-04-23T17:53:18.234Z,20.13
2023-04-23T17:55:45.571Z,20.08
2023-04-23T17:58:12.985Z,19.89
2023-04-23T18:00:42.428Z,19.88
2023-04-23T18:03:11.689Z,20.01
2023-04-23T18:05:39.279Z,19.95
2023-04-23T18:08:07.548Z,19.91
2023-04-23T18:10:35.095Z,19.88
2023-04-23T18:13:09.088Z,19.86
2023-04-23T18:15:36.500Z,19.72
2023-04-23T18:18:04.313Z,19.57
2023-04-23T18:20:33.160Z,19.43
2023-04-23T18:23:01.018Z,19.50
2023-04-23T18:25:28.502Z,19.61
2023-04-23T18:27:56.121Z,19.42
2023-04-23T18:30:25.459Z,19.42
2023-04-23T18:33:29.203Z,19.23
2023-04-23T18:35:59.425Z,19.30
2023-04-23T18:38:37.406Z,19.21
2023-04-23T18:41:06.257Z,19.19
2023-04-23T18:43:34.361Z,19.10
2023-04-23T18:46:03.145Z,18.97
2023-04-23T18:48:33.633Z,18.97
2023-04-23T18:51:13.264Z,18.92
2023-04-23T18:53:40.929Z,18.84
2023-04-23T18:56:08.472Z,18.83
2023-04-23T18:58:35.858Z,18.81
2023-04-23T19:01:03.413Z,18.69
2023-04-23T19:03:31.742Z,18.73
2023-04-23T19:06:00.521Z,18.68
2023-04-23T19:08:30.733Z,18.65
2023-04-23T19:10:58.782Z,18.64
2023-04-23T19:13:26.670Z,18.61
2023-04-23T19:15:54.302Z,18.60
2023-04-23T19:18:21.939Z,18.50
2023-04-23T19:20:49.504Z,18.52
2023-04-23T19:23:17.005Z,18.51
2023-04-23T19:25:44.474Z,18.47
2023-04-23T19:28:11.992Z,18.44
2023-04-23T19:30:39.511Z,18.40
2023-04-23T19:33:07.073Z,18.46
2023-04-23T19:35:34.596Z,18.44
2023-04-23T19:38:02.276Z,18.41
2023-04-23T19:40:32.361Z,18.43
2023-04-23T19:42:59.847Z,18.44
2023-04-23T19:45:27.262Z,18.24
2023-04-23T19:47:54.761Z,18.11
2023-04-23T19:50:22.742Z,18.05
2023-04-23T19:52:50.456Z,18.09
2023-04-23T19:55:22.578Z,18.14
2023-04-23T19:57:50.027Z,18.12
2023-04-23T20:00:18.263Z,18.12
2023-04-23T20:02:46.234Z,18.00
2023-04-23T20:05:13.823Z,18.01
2023-04-23T20:07:41.271Z,18.04
2023-04-23T20:10:09.128Z,18.04
2023-04-23T20:12:36.702Z,17.99
2023-04-23T20:15:04.563Z,18.09
2023-04-23T20:17:32.874Z,18.12
2023-04-23T20:20:01.972Z,17.97
2023-04-23T20:22:30.070Z,18.11
2023-04-23T20:24:58.106Z,18.03
2023-04-23T20:27:29.219Z,18.12
2023-04-23T20:29:57.238Z,18.25
2023-04-23T20:32:24.676Z,18.33
2023-04-23T20:34:52.793Z,18.41
2023-04-23T20:37:21.633Z,18.29
2023-04-23T20:39:50.055Z,18.24
2023-04-23T20:42:17.635Z,18.27
2023-04-23T20:44:49.002Z,18.19
2023-04-23T20:47:16.507Z,18.13
2023-04-23T20:49:44.142Z,18.07
2023-04-23T20:52:13.490Z,18.03
2023-04-23T20:54:41.535Z,18.02
2023-04-23T20:57:08.991Z,17.92
2023-04-23T20:59:36.350Z,17.88
2023-04-23T21:02:03.781Z,17.91
2023-04-23T21:04:31.329Z,17.85
2023-04-23T21:06:58.958Z,17.91
2023-04-23T21:09:26.383Z,17.95
2023-04-23T21:11:54.401Z,17.94
2023-04-23T21:14:21.919Z,17.95
2023-04-23T21:16:49.475Z,17.90
2023-04-23T21:19:17.055Z,17.74
2023-04-23T21:21:44.416Z,17.74
2023-04-23T21:24:11.808Z,17.65
2023-04-23T21:26:39.200Z,17.72
2023-04-23T21:29:06.576Z,17.71
2023-04-23T21:31:51.309Z,17.71
2023-04-23T21:34:19.641Z,17.71
2023-04-23T21:36:47.230Z,17.77
2023-04-23T21:39:14.734Z,17.82
2023-04-23T21:41:42.223Z,17.95
2023-04-23T21:44:09.691Z,17.96
2023-04-23T21:46:37.068Z,17.76
2023-04-23T21:49:04.920Z,17.87
2023-04-23T21:51:37.019Z,17.77
2023-04-23T21:54:05.894Z,17.74
2023-04-23T21:56:34.156Z,17.70
2023-04-23T21:59:02.110Z,17.67
2023-04-23T22:01:29.751Z,17.67
2023-04-23T22:03:58.241Z,17.58
2023-04-23T22:06:25.824Z,17.57
2023-04-23T22:08:54.726Z,17.57
2023-04-23T22:11:22.589Z,17.48
2023-04-23T22:13:50.035Z,17.55
2023-04-23T22:16:27.407Z,17.43
2023-04-23T22:18:57.302Z,17.57
2023-04-23T22:21:24.722Z,17.58
2023-04-23T22:23:52.083Z,17.49
2023-04-23T22:26:19.734Z,17.55
2023-04-23T22:28:47.443Z,17.54
2023-04-23T22:31:14.895Z,17.52
2023-04-23T22:33:42.257Z,17.48
2023-04-23T22:36:09.685Z,17.54
2023-04-23T22:38:37.222Z,17.49
2023-04-23T22:41:04.645Z,17.56
2023-04-23T22:43:32.169Z,17.66
2023-04-23T22:45:59.688Z,17.58
2023-04-23T22:48:27.989Z,17.53
2023-04-23T22:50:55.396Z,17.53
2023-04-23T22:53:22.873Z,17.38
2023-04-23T22:55:50.641Z,17.41
2023-04-23T22:58:18.018Z,17.46
2023-04-23T23:00:45.470Z,17.48
2023-04-23T23:03:13.054Z,17.36
2023-04-23T23:05:40.546Z,17.29
2023-04-23T23:08:07.947Z,17.13
2023-04-23T23:10:35.616Z,17.07
2023-04-23T23:13:03.037Z,17.07
2023-04-23T23:15:30.503Z,17.04
2023-04-23T23:17:57.976Z,17.12
2023-04-23T23:20:25.648Z,17.07
2023-04-23T23:22:53.241Z,17.17
2023-04-23T23:25:20.679Z,17.26
2023-04-23T23:27:48.106Z,17.17
2023-04-23T23:30:15.822Z,17.17
2023-04-23T23:32:43.351Z,17.14
2023-04-23T23:35:10.787Z,17.28
2023-04-23T23:37:38.219Z,17.19
2023-04-23T23:40:06.315Z,17.21
2023-04-23T23:42:33.772Z,17.16
2023-04-23T23:45:01.143Z,17.36
2023-04-23T23:47:28.571Z,17.30
2023-04-23T23:49:56.040Z,17.25
2023-04-23T23:52:23.393Z,17.29
2023-04-23T23:54:51.301Z,17.23
2023-04-23T23:57:18.698Z,17.16
2023-04-23T23:59:47.047Z,17.09
